Time;durP1;ratioP1;P1;durP2;ratioP2;P2;SDS_P1;SDS_P2;PMS_P1;PMS_P2;Temp;Humidity;BMP_temperature;BMP_pressure;BME280_temperature;BME280_humidity;BME280_pressure;Samples;Min_cycle;Max_cycle;Signal;HPM_P1;HPM_P2
2021/07/06 00:00:31;;;;;;;;;;;23.70;80.60;23.60;98686.00;;;;338857;28;88299;-92
2021/07/06 00:00:43;;;;;;;;;;;23.70;80.70;23.70;98680.00;;;;339146;28;88205;-91
2021/07/06 00:00:54;;;;;;;;;;;23.70;80.70;23.70;98688.00;;;;341690;28;86967;-91
2021/07/06 00:01:06;;;;;;;;;;;23.70;80.60;23.70;98672.00;;;;339248;28;88329;-91
2021/07/06 00:01:18;;;;;;;;;;;23.60;80.60;23.60;98676.00;;;;340269;28;85361;-91
2021/07/06 00:01:30;;;;;;;;;;;23.70;81.00;23.60;98677.00;;;;340361;28;89852;-91
2021/07/06 00:01:42;;;;;;;;;;;23.60;80.80;23.60;98680.00;;;;341405;28;87697;-90
2021/07/06 00:01:54;;;;;;;;;;;23.60;80.70;23.70;98684.00;;;;345877;28;88923;-90
2021/07/06 00:02:06;;;;;;;;;;;23.60;80.70;23.60;98675.00;;;;342791;28;88298;-91
2021/07/06 00:02:18;;;;;;;;;;;23.60;80.70;23.60;98669.00;;;;338994;28;88786;-92
2021/07/06 00:02:30;;;;;;;;;;;23.60;80.70;23.60;98672.00;;;;338688;28;87361;-91
2021/07/06 00:02:42;;;;;;;;;;;23.60;81.00;23.60;98673.00;;;;340087;28;88619;-91
2021/07/06 00:02:57;;;;;;;;;;;23.60;80.90;23.60;98667.00;;;;342591;28;86022;-90
2021/07/06 00:03:09;;;;;;;;;;;23.60;80.90;23.60;98670.00;;;;342883;28;89674;-92
2021/07/06 00:03:21;;;;;;;;;;;23.60;80.80;23.60;98670.00;;;;341370;28;87042;-90
2021/07/06 00:03:33;;;;;;;;;;;23.60;80.70;23.60;98668.00;;;;340349;28;90602;-91
2021/07/06 00:03:45;;;;;;;;;;;23.60;80.50;23.60;98669.00;;;;341280;28;87264;-90
2021/07/06 00:03:57;;;;;;;;;;;23.60;80.60;23.50;98681.00;;;;340211;28;89947;-90
2021/07/06 00:04:08;;;;;;;;;;;23.60;80.70;23.50;98673.00;;;;338775;28;86790;-89
2021/07/06 00:04:20;;;;;;;;;;;23.60;80.60;23.60;98671.00;;;;338925;28;90979;-91
2021/07/06 00:04:32;;;;;;;;;;;23.60;80.60;23.70;98664.00;;;;339915;28;87897;-90
2021/07/06 00:04:45;;;;;;;;;;;23.60;80.60;23.70;98670.00;;;;337534;28;90716;-90
2021/07/06 00:05:00;;;;;;;;;;;23.60;80.50;23.70;98671.00;;;;336015;29;88430;-91
2021/07/06 00:05:12;;;;;;;;;;;23.60;80.60;23.60;98667.00;;;;337706;28;88315;-91
2021/07/06 00:05:23;;;;;;;;;;;23.60;80.80;23.70;98666.00;;;;336097;29;86865;-91
2021/07/06 00:05:35;;;;;;;;;;;23.60;80.70;23.70;98669.00;;;;340334;28;87463;-91
2021/07/06 00:05:47;;;;;;;;;;;23.60;80.60;23.70;98666.00;;;;337031;28;87515;-90
2021/07/06 00:05:58;;;;;;;;;;;23.60;80.70;23.70;98664.00;;;;339188;28;90162;-91
2021/07/06 00:06:10;;;;;;;;;;;23.60;80.50;23.70;98669.00;;;;341467;28;86819;-91
2021/07/06 00:06:22;;;;;;;;;;;23.60;80.70;23.70;98675.00;;;;338957;28;90894;-91
2021/07/06 00:06:34;;;;;;;;;;;23.50;80.60;23.60;98665.00;;;;335883;28;87705;-90
2021/07/06 00:06:45;;;;;;;;;;;23.60;80.50;23.60;98665.00;;;;339090;28;89824;-90
2021/07/06 00:06:57;;;;;;;;;;;23.60;80.60;23.70;98667.00;;;;339998;28;86960;-91
2021/07/06 00:07:09;;;;;;;;;;;23.60;80.50;23.70;98666.00;;;;338878;28;89435;-91
2021/07/06 00:07:20;;;;;;;;;;;23.60;80.50;23.60;98669.00;;;;338572;28;88628;-90
2021/07/06 00:07:32;;;;;;;;;;;23.60;80.40;23.60;98661.00;;;;341357;28;90141;-90
2021/07/06 00:07:46;;;;;;;;;;;23.60;80.60;23.60;98670.00;;;;340171;28;86116;-91
2021/07/06 00:07:58;;;;;;;;;;;23.60;80.50;23.60;98677.00;;;;339037;28;88350;-91
2021/07/06 00:08:10;;;;;;;;;;;23.60;80.50;23.60;98666.00;;;;340009;28;88791;-91
2021/07/06 00:08:22;;;;;;;;;;;23.50;80.20;23.60;98670.00;;;;338999;28;88720;-92
2021/07/06 00:08:34;;;;;;;;;;;23.50;80.20;23.60;98672.00;;;;339974;28;87982;-91
2021/07/06 00:08:45;;;;;;;;;;;23.60;80.30;23.60;98671.00;;;;338951;28;88780;-91
2021/07/06 00:08:57;;;;;;;;;;;23.60;80.30;23.60;98667.00;;;;337326;28;86011;-90
2021/07/06 00:09:09;;;;;;;;;;;23.50;80.20;23.60;98677.00;;;;340329;28;88290;-91
2021/07/06 00:09:21;;;;;;;;;;;23.60;80.30;23.60;98670.00;;;;339869;28;87059;-90
2021/07/06 00:09:33;;;;;;;;;;;23.60;80.20;23.70;98668.00;;;;337672;28;89309;-90
2021/07/06 00:09:45;;;;;;;;;;;23.60;80.10;23.60;98666.00;;;;337331;28;86802;-91
2021/07/06 00:09:58;;;;;;;;;;;23.60;80.20;23.60;98672.00;;;;338886;28;88460;-91
2021/07/06 00:10:11;;;;;;;;;;;23.50;80.10;23.60;98674.00;;;;341400;28;86912;-89
2021/07/06 00:10:24;;;;;;;;;;;23.50;80.00;23.60;98674.00;;;;341349;28;91534;-91
2021/07/06 00:10:36;;;;;;;;;;;23.50;80.00;23.70;98670.00;;;;338691;28;86903;-91
2021/07/06 00:10:48;;;;;;;;;;;23.50;80.10;23.60;98681.00;;;;339009;28;87297;-91
2021/07/06 00:11:00;;;;;;;;;;;23.50;80.30;23.60;98667.00;;;;340191;28;85998;-91
2021/07/06 00:11:11;;;;;;;;;;;23.50;80.10;23.60;98683.00;;;;338916;28;90401;-92
2021/07/06 00:11:23;;;;;;;;;;;23.50;80.10;23.60;98676.00;;;;340052;28;87879;-90
2021/07/06 00:11:35;;;;;;;;;;;23.50;79.90;23.60;98664.00;;;;341662;28;90205;-91
2021/07/06 00:11:46;;;;;;;;;;;23.50;79.70;23.60;98676.00;;;;338801;28;87098;-91
2021/07/06 00:11:58;;;;;;;;;;;23.50;79.60;23.60;98678.00;;;;339148;28;91589;-90
2021/07/06 00:12:10;;;;;;;;;;;23.50;79.80;23.50;98674.00;;;;338835;28;86844;-90
2021/07/06 00:12:22;;;;;;;;;;;23.50;79.90;23.60;98669.00;;;;337701;28;90302;-91
2021/07/06 00:12:33;;;;;;;;;;;23.50;79.90;23.50;98666.00;;;;339749;28;88493;-90
2021/07/06 00:12:45;;;;;;;;;;;23.50;80.00;23.50;98672.00;;;;340172;28;91352;-90
2021/07/06 00:12:57;;;;;;;;;;;23.50;79.70;23.50;98666.00;;;;339867;28;88537;-90
2021/07/06 00:13:09;;;;;;;;;;;23.50;79.70;23.50;98668.00;;;;339029;28;90977;-90
2021/07/06 00:13:21;;;;;;;;;;;23.50;79.50;23.60;98671.00;;;;340369;28;85305;-91
2021/07/06 00:13:33;;;;;;;;;;;23.50;79.60;23.60;98670.00;;;;340500;28;89032;-91
2021/07/06 00:13:44;;;;;;;;;;;23.50;79.50;23.50;98669.00;;;;338799;28;88442;-91
2021/07/06 00:13:56;;;;;;;;;;;23.50;79.50;23.50;98668.00;;;;339010;28;88580;-90
2021/07/06 00:14:08;;;;;;;;;;;23.50;79.50;23.50;98668.00;;;;340117;28;89092;-90
2021/07/06 00:14:20;;;;;;;;;;;23.50;79.30;23.50;98670.00;;;;339238;28;88429;-91
2021/07/06 00:14:31;;;;;;;;;;;23.50;79.30;23.50;98668.00;;;;337411;28;86902;-90
2021/07/06 00:14:44;;;;;;;;;;;23.50;79.40;23.60;98670.00;;;;338641;28;88623;-90
2021/07/06 00:14:55;;;;;;;;;;;23.50;79.50;23.60;98665.00;;;;339963;28;87753;-89
2021/07/06 00:15:08;;;;;;;;;;;23.50;79.30;23.60;98659.00;;;;340342;28;88362;-89
2021/07/06 00:15:23;;;;;;;;;;;23.50;78.90;23.60;98664.00;;;;340183;28;85558;-90
2021/07/06 00:15:34;;;;;;;;;;;23.50;78.90;23.60;98666.00;;;;338878;28;89057;-91
2021/07/06 00:15:48;;;;;;;;;;;23.50;78.90;23.60;98666.00;;;;337272;28;87666;-91
2021/07/06 00:16:00;;;;;;;;;;;23.50;79.00;23.60;98658.00;;;;339079;28;89610;-91
2021/07/06 00:16:13;;;;;;;;;;;23.50;79.00;23.60;98659.00;;;;347095;28;88437;-91
2021/07/06 00:16:25;;;;;;;;;;;23.50;78.90;23.60;98660.00;;;;339010;28;90565;-91
2021/07/06 00:16:37;;;;;;;;;;;23.50;79.00;23.60;98663.00;;;;338635;28;88035;-90
2021/07/06 00:16:49;;;;;;;;;;;23.50;78.90;23.50;98661.00;;;;345840;28;90631;-91
2021/07/06 00:17:00;;;;;;;;;;;23.50;79.00;23.50;98667.00;;;;337394;28;87826;-91
2021/07/06 00:17:12;;;;;;;;;;;23.50;78.80;23.50;98656.00;;;;338861;28;90777;-91
2021/07/06 00:17:24;;;;;;;;;;;23.50;78.70;23.60;98651.00;;;;345705;28;87898;-91
2021/07/06 00:17:36;;;;;;;;;;;23.50;78.90;23.60;98663.00;;;;347277;28;90472;-90
2021/07/06 00:17:48;;;;;;;;;;;23.50;79.10;23.50;98661.00;;;;337460;28;87084;-92
2021/07/06 00:18:00;;;;;;;;;;;23.50;79.30;23.50;98664.00;;;;338870;28;87269;-91
2021/07/06 00:18:12;;;;;;;;;;;23.50;79.20;23.50;98666.00;;;;339915;28;88747;-90
2021/07/06 00:18:24;;;;;;;;;;;23.50;79.10;23.50;98659.00;;;;338901;28;88389;-90
2021/07/06 00:18:35;;;;;;;;;;;23.50;79.10;23.60;98656.00;;;;339941;28;87961;-91
2021/07/06 00:18:47;;;;;;;;;;;23.50;79.10;23.60;98653.00;;;;336701;28;90022;-89
2021/07/06 00:18:59;;;;;;;;;;;23.50;79.10;23.50;98660.00;;;;338880;28;88845;-92
2021/07/06 00:19:11;;;;;;;;;;;23.50;79.00;23.50;98657.00;;;;339027;28;90659;-90
2021/07/06 00:19:23;;;;;;;;;;;23.50;79.00;23.50;98657.00;;;;345961;28;87506;-91
2021/07/06 00:19:35;;;;;;;;;;;23.50;79.10;23.60;98656.00;;;;346266;28;89701;-91
2021/07/06 00:19:48;;;;;;;;;;;23.50;79.10;23.60;98661.00;;;;345707;28;86920;-89
2021/07/06 00:20:00;;;;;;;;;;;23.50;79.20;23.70;98658.00;;;;343303;28;89500;-91
2021/07/06 00:20:12;;;;;;;;;;;23.50;79.40;23.60;98659.00;;;;336346;28;87981;-91
2021/07/06 00:20:26;;;;;;;;;;;23.50;79.20;23.70;98660.00;;;;345946;28;90608;-90
2021/07/06 00:20:38;;;;;;;;;;;23.50;79.20;23.60;98658.00;;;;340084;28;86127;-90
2021/07/06 00:20:49;;;;;;;;;;;23.50;79.20;23.50;98656.00;;;;345681;28;91523;-90
2021/07/06 00:21:01;;;;;;;;;;;23.50;79.10;23.50;98654.00;;;;345756;28;87049;-91
2021/07/06 00:21:13;;;;;;;;;;;23.50;79.10;23.50;98658.00;;;;345773;28;90627;-90
2021/07/06 00:21:25;;;;;;;;;;;23.50;79.20;23.40;98656.00;;;;340222;28;86022;-90
2021/07/06 00:21:37;;;;;;;;;;;23.40;79.00;23.50;98656.00;;;;340273;28;90689;-92
2021/07/06 00:21:48;;;;;;;;;;;23.40;79.40;23.50;98656.00;;;;341304;28;86887;-88
2021/07/06 00:22:00;;;;;;;;;;;23.40;78.80;23.50;98652.00;;;;339104;28;88523;-91
2021/07/06 00:22:12;;;;;;;;;;;23.40;78.80;23.50;98648.00;;;;338820;28;86745;-92
2021/07/06 00:22:27;;;;;;;;;;;23.50;78.90;23.50;98650.00;;;;339204;28;91299;-90
2021/07/06 00:22:40;;;;;;;;;;;23.50;79.00;23.50;98658.00;;;;337532;28;86783;-90
2021/07/06 00:22:54;;;;;;;;;;;23.40;79.00;23.50;98649.00;;;;338996;28;88417;-90
2021/07/06 00:23:07;;;;;;;;;;;23.40;79.00;23.50;98644.00;;;;338753;28;86898;-91
2021/07/06 00:23:18;;;;;;;;;;;23.40;78.90;23.50;98651.00;;;;340357;28;88893;-91
2021/07/06 00:23:30;;;;;;;;;;;23.40;78.90;23.40;98654.00;;;;340210;28;86066;-91
2021/07/06 00:23:42;;;;;;;;;;;23.40;79.00;23.40;98657.00;;;;338289;28;88983;-91
2021/07/06 00:23:54;;;;;;;;;;;23.40;78.90;23.50;98647.00;;;;339418;28;87160;-91
2021/07/06 00:24:06;;;;;;;;;;;23.40;78.80;23.50;98654.00;;;;337611;28;88296;-91
2021/07/06 00:24:18;;;;;;;;;;;23.40;78.90;23.50;98650.00;;;;337344;28;86858;-90
2021/07/06 00:24:29;;;;;;;;;;;23.40;79.00;23.50;98653.00;;;;336289;28;87504;-91
2021/07/06 00:24:41;;;;;;;;;;;23.40;78.70;23.50;98655.00;;;;337391;28;86952;-91
2021/07/06 00:24:53;;;;;;;;;;;23.40;78.80;23.50;98659.00;;;;338947;28;88465;-90
2021/07/06 00:25:05;;;;;;;;;;;23.40;78.80;23.40;98653.00;;;;340069;28;86908;-91
2021/07/06 00:25:17;;;;;;;;;;;23.40;78.90;23.40;98648.00;;;;338834;28;91369;-91
2021/07/06 00:25:29;;;;;;;;;;;23.40;78.80;23.40;98649.00;;;;340157;28;86039;-91
2021/07/06 00:25:41;;;;;;;;;;;23.40;78.80;23.40;98660.00;;;;339016;28;87699;-91
2021/07/06 00:25:52;;;;;;;;;;;23.40;78.70;23.50;98651.00;;;;338667;28;86814;-91
2021/07/06 00:26:05;;;;;;;;;;;23.40;78.60;23.40;98648.00;;;;340312;28;88542;-90
2021/07/06 00:26:17;;;;;;;;;;;23.40;78.70;23.40;98647.00;;;;340013;28;88702;-91
2021/07/06 00:26:29;;;;;;;;;;;23.40;78.80;23.40;98653.00;;;;339021;28;88559;-91
2021/07/06 00:26:41;;;;;;;;;;;23.40;78.60;23.40;98648.00;;;;336942;28;87086;-89
2021/07/06 00:26:52;;;;;;;;;;;23.40;78.50;23.50;98644.00;;;;338044;28;87350;-91
2021/07/06 00:27:04;;;;;;;;;;;23.40;78.60;23.40;98646.00;;;;336935;28;88767;-90
2021/07/06 00:27:16;;;;;;;;;;;23.40;78.50;23.50;98644.00;;;;340176;28;88521;-90
2021/07/06 00:27:28;;;;;;;;;;;23.40;77.90;23.50;98649.00;;;;337099;28;88833;-91
2021/07/06 00:27:40;;;;;;;;;;;23.40;77.90;23.50;98648.00;;;;339011;28;87787;-90
2021/07/06 00:27:53;;;;;;;;;;;23.40;78.00;23.40;98648.00;;;;338354;28;86856;-90
2021/07/06 00:28:05;;;;;;;;;;;23.40;78.20;23.50;98648.00;;;;337725;28;87390;-90
2021/07/06 00:28:16;;;;;;;;;;;23.40;78.10;23.60;98648.00;;;;338615;28;86988;-89
2021/07/06 00:28:28;;;;;;;;;;;23.40;78.20;23.60;98641.00;;;;338857;28;91512;-88
2021/07/06 00:28:40;;;;;;;;;;;23.40;78.10;23.60;98640.00;;;;340012;28;86078;-91
2021/07/06 00:28:51;;;;;;;;;;;23.40;78.00;23.60;98639.00;;;;341697;28;88642;-91
2021/07/06 00:29:03;;;;;;;;;;;23.40;78.20;23.50;98640.00;;;;338575;28;87536;-89
2021/07/06 00:29:15;;;;;;;;;;;23.40;78.20;23.50;98635.00;;;;340308;28;87965;-91
2021/07/06 00:29:27;;;;;;;;;;;23.40;77.90;23.50;98652.00;;;;340160;28;86160;-91
2021/07/06 00:29:38;;;;;;;;;;;23.40;78.10;23.50;98630.00;;;;339028;28;86237;-90
2021/07/06 00:29:50;;;;;;;;;;;23.40;78.20;23.50;98640.00;;;;341898;28;86952;-92
2021/07/06 00:30:04;;;;;;;;;;;23.40;78.10;23.50;98645.00;;;;340203;28;89295;-90
2021/07/06 00:30:16;;;;;;;;;;;23.40;78.00;23.50;98632.00;;;;339968;28;86664;-90
2021/07/06 00:30:28;;;;;;;;;;;23.40;77.70;23.50;98643.00;;;;340335;28;88746;-90
2021/07/06 00:30:40;;;;;;;;;;;23.40;77.70;23.50;98643.00;;;;339960;28;87402;-91
2021/07/06 00:30:52;;;;;;;;;;;23.40;77.90;23.50;98645.00;;;;338511;28;90711;-90
2021/07/06 00:31:04;;;;;;;;;;;23.40;77.90;23.50;98634.00;;;;345559;28;86988;-90
2021/07/06 00:31:16;;;;;;;;;;;23.40;77.90;23.60;98633.00;;;;344470;28;89790;-90
2021/07/06 00:31:28;;;;;;;;;;;23.40;78.10;23.60;98633.00;;;;337417;28;86199;-91
2021/07/06 00:31:40;;;;;;;;;;;23.40;77.70;23.60;98635.00;;;;336373;29;87262;-91
2021/07/06 00:31:52;;;;;;;;;;;23.40;77.70;23.60;98634.00;;;;337220;28;88601;-91
2021/07/06 00:32:04;;;;;;;;;;;23.40;77.60;23.60;98636.00;;;;341648;28;89930;-91
2021/07/06 00:32:16;;;;;;;;;;;23.40;77.70;23.60;98635.00;;;;337347;28;87209;-90
2021/07/06 00:32:28;;;;;;;;;;;23.40;77.70;23.70;98634.00;;;;338944;28;88737;-91
2021/07/06 00:32:40;;;;;;;;;;;23.40;77.50;23.60;98633.00;;;;339658;28;88945;-89
2021/07/06 00:32:52;;;;;;;;;;;23.50;77.40;23.70;98635.00;;;;340362;28;90617;-90
2021/07/06 00:33:04;;;;;;;;;;;23.50;77.50;23.70;98637.00;;;;341068;28;88604;-91
2021/07/06 00:33:17;;;;;;;;;;;23.50;77.80;23.70;98636.00;;;;339953;28;88549;-88
2021/07/06 00:33:30;;;;;;;;;;;23.50;77.80;23.70;98637.00;;;;338710;28;86126;-91
2021/07/06 00:33:41;;;;;;;;;;;23.50;77.40;23.70;98630.00;;;;337700;28;87490;-91
2021/07/06 00:33:53;;;;;;;;;;;23.50;77.10;23.60;98629.00;;;;337415;28;86072;-91
2021/07/06 00:34:05;;;;;;;;;;;23.50;77.30;23.60;98634.00;;;;338995;28;87655;-90
2021/07/06 00:34:17;;;;;;;;;;;23.50;78.10;23.60;98642.00;;;;338690;28;86960;-91
2021/07/06 00:34:28;;;;;;;;;;;23.50;77.40;23.60;98637.00;;;;340389;28;88715;-91
2021/07/06 00:34:40;;;;;;;;;;;23.50;77.20;23.60;98634.00;;;;340226;28;86804;-90
2021/07/06 00:34:52;;;;;;;;;;;23.50;77.40;23.50;98629.00;;;;338042;28;87392;-90
2021/07/06 00:35:05;;;;;;;;;;;23.50;77.50;23.60;98640.00;;;;340107;28;86938;-90
2021/07/06 00:35:17;;;;;;;;;;;23.50;77.40;23.60;98633.00;;;;338896;28;91427;-91
2021/07/06 00:35:29;;;;;;;;;;;23.50;77.30;23.60;98629.00;;;;338784;28;87780;-90
2021/07/06 00:35:42;;;;;;;;;;;23.50;77.40;23.60;98638.00;;;;337437;28;89156;-89
2021/07/06 00:35:57;;;;;;;;;;;23.50;77.40;23.60;98629.00;;;;340892;28;87110;-90
2021/07/06 00:36:09;;;;;;;;;;;23.50;77.10;23.50;98630.00;;;;340624;28;87012;-90
2021/07/06 00:36:21;;;;;;;;;;;23.50;77.00;23.50;98629.00;;;;337577;28;87188;-90
2021/07/06 00:36:33;;;;;;;;;;;23.50;77.00;23.50;98628.00;;;;339378;28;87649;-89
2021/07/06 00:36:44;;;;;;;;;;;23.50;77.00;23.50;98631.00;;;;340075;28;86115;-90
2021/07/06 00:36:56;;;;;;;;;;;23.50;76.90;23.50;98630.00;;;;339460;28;87400;-90
2021/07/06 00:37:08;;;;;;;;;;;23.50;76.90;23.60;98627.00;;;;340317;28;87311;-91
2021/07/06 00:37:19;;;;;;;;;;;23.50;76.80;23.60;98630.00;;;;340637;28;87031;-91
2021/07/06 00:37:31;;;;;;;;;;;23.40;77.20;23.60;98631.00;;;;339161;28;85483;-90
2021/07/06 00:37:43;;;;;;;;;;;23.50;77.50;23.60;98636.00;;;;338099;28;86712;-91
2021/07/06 00:37:55;;;;;;;;;;;23.50;77.40;23.70;98627.00;;;;340315;28;88786;-90
2021/07/06 00:38:07;;;;;;;;;;;23.50;77.10;23.60;98636.00;;;;336732;28;87108;-89
2021/07/06 00:38:19;;;;;;;;;;;23.50;77.20;23.60;98631.00;;;;337775;28;86906;-90
2021/07/06 00:38:31;;;;;;;;;;;23.50;77.20;23.60;98633.00;;;;340377;28;91357;-90
2021/07/06 00:38:42;;;;;;;;;;;23.50;77.20;23.70;98638.00;;;;339857;28;86843;-91
2021/07/06 00:38:54;;;;;;;;;;;23.50;77.00;23.70;98637.00;;;;340138;28;89575;-90
2021/07/06 00:39:06;;;;;;;;;;;23.50;77.00;23.70;98630.00;;;;338655;28;86997;-90
2021/07/06 00:39:18;;;;;;;;;;;23.50;77.10;23.70;98632.00;;;;340433;28;88873;-91
2021/07/06 00:39:29;;;;;;;;;;;23.50;77.20;23.60;98629.00;;;;340613;28;86063;-91
2021/07/06 00:39:41;;;;;;;;;;;23.50;77.10;23.60;98634.00;;;;340721;28;89426;-91
2021/07/06 00:39:53;;;;;;;;;;;23.50;77.10;23.60;98631.00;;;;341520;28;87156;-91
2021/07/06 00:40:06;;;;;;;;;;;23.50;77.10;23.60;98635.00;;;;340999;28;87209;-91
2021/07/06 00:40:17;;;;;;;;;;;23.50;77.10;23.60;98647.00;;;;340521;28;87798;-91
2021/07/06 00:40:29;;;;;;;;;;;23.50;77.10;23.60;98640.00;;;;340739;28;88514;-91
2021/07/06 00:40:41;;;;;;;;;;;23.50;77.10;23.60;98646.00;;;;339097;28;86927;-90
2021/07/06 00:40:53;;;;;;;;;;;23.50;77.20;23.60;98635.00;;;;341823;28;90641;-90
2021/07/06 00:41:05;;;;;;;;;;;23.50;77.20;23.50;98633.00;;;;339050;28;88174;-89
2021/07/06 00:41:17;;;;;;;;;;;23.50;77.20;23.60;98642.00;;;;340479;28;90764;-90
2021/07/06 00:41:29;;;;;;;;;;;23.50;76.80;23.60;98635.00;;;;337841;28;87328;-90
2021/07/06 00:41:40;;;;;;;;;;;23.50;76.80;23.60;98635.00;;;;339116;28;87407;-88
2021/07/06 00:41:52;;;;;;;;;;;23.50;76.90;23.60;98637.00;;;;339714;28;87315;-90
2021/07/06 00:42:06;;;;;;;;;;;23.50;77.10;23.50;98632.00;;;;340217;28;89672;-92
2021/07/06 00:42:17;;;;;;;;;;;23.50;77.00;23.60;98639.00;;;;341471;28;86963;-90
2021/07/06 00:42:29;;;;;;;;;;;23.50;76.80;23.60;98633.00;;;;340222;28;89650;-91
2021/07/06 00:42:41;;;;;;;;;;;23.50;76.90;23.70;98641.00;;;;340444;28;86074;-90
2021/07/06 00:42:59;;;;;;;;;;;23.50;77.00;23.60;98633.00;;;;340899;28;91059;-90
2021/07/06 00:43:10;;;;;;;;;;;23.50;76.90;23.70;98643.00;;;;339068;28;87523;-91
2021/07/06 00:43:22;;;;;;;;;;;23.50;76.80;23.70;98638.00;;;;340713;28;87896;-89
2021/07/06 00:43:36;;;;;;;;;;;23.50;76.80;23.60;98633.00;;;;342019;28;85207;-90
2021/07/06 00:43:48;;;;;;;;;;;23.50;76.90;23.60;98634.00;;;;341766;28;86255;-90
2021/07/06 00:44:01;;;;;;;;;;;23.50;77.00;23.60;98638.00;;;;341718;28;88604;-89
2021/07/06 00:44:16;;;;;;;;;;;23.50;77.00;23.60;98638.00;;;;342259;28;87835;-89
2021/07/06 00:44:28;;;;;;;;;;;23.50;77.10;23.50;98627.00;;;;343161;28;88629;-87
2021/07/06 00:44:40;;;;;;;;;;;23.50;77.10;23.60;98635.00;;;;342106;28;89758;-90
2021/07/06 00:44:53;;;;;;;;;;;23.50;77.10;23.60;98630.00;;;;341350;28;86862;-90
2021/07/06 00:45:05;;;;;;;;;;;23.50;77.10;23.60;98632.00;;;;341847;28;90412;-88
2021/07/06 00:45:17;;;;;;;;;;;23.50;77.00;23.60;98634.00;;;;341186;28;87227;-88
2021/07/06 00:45:29;;;;;;;;;;;23.50;77.00;23.60;98632.00;;;;342350;28;87326;-90
2021/07/06 00:45:41;;;;;;;;;;;23.50;77.00;23.60;98634.00;;;;339259;28;87757;-89
2021/07/06 00:45:57;;;;;;;;;;;23.50;77.00;23.50;98632.00;;;;341782;28;89131;-90
2021/07/06 00:46:08;;;;;;;;;;;23.50;77.00;23.60;98633.00;;;;343011;28;86831;-90
2021/07/06 00:46:20;;;;;;;;;;;23.50;76.90;23.70;98626.00;;;;343053;28;89649;-91
2021/07/06 00:46:32;;;;;;;;;;;23.50;76.90;23.60;98629.00;;;;340504;28;86071;-90
2021/07/06 00:46:44;;;;;;;;;;;23.50;76.90;23.60;98620.00;;;;341777;28;87365;-90
2021/07/06 00:46:56;;;;;;;;;;;23.50;77.00;23.60;98629.00;;;;341443;28;86088;-92
2021/07/06 00:47:08;;;;;;;;;;;23.50;77.10;23.50;98625.00;;;;340294;28;90160;-89
2021/07/06 00:47:33;;;;;;;;;;;23.50;77.10;23.60;98626.00;;;;336918;28;87370;-90
2021/07/06 00:47:45;;;;;;;;;;;23.50;77.10;23.50;98621.00;;;;339138;28;89465;-90
2021/07/06 00:48:00;;;;;;;;;;;23.50;77.00;23.50;98620.00;;;;340427;28;86244;-90
2021/07/06 00:48:12;;;;;;;;;;;23.50;77.10;23.50;98630.00;;;;337887;28;91144;-90
2021/07/06 00:48:25;;;;;;;;;;;23.50;77.10;23.60;98622.00;;;;338526;28;87004;-91
2021/07/06 00:48:37;;;;;;;;;;;23.50;77.20;23.60;98620.00;;;;341051;28;89137;-91
2021/07/06 00:48:49;;;;;;;;;;;23.50;77.20;23.50;98626.00;;;;339388;28;86574;-91
2021/07/06 00:49:01;;;;;;;;;;;23.50;77.10;23.60;98620.00;;;;338621;28;87223;-91
2021/07/06 00:49:13;;;;;;;;;;;23.50;77.10;23.60;98624.00;;;;339555;28;86909;-90
2021/07/06 00:49:24;;;;;;;;;;;23.40;77.70;23.50;98618.00;;;;337406;28;88714;-90
2021/07/06 00:49:36;;;;;;;;;;;23.50;77.10;23.50;98628.00;;;;339979;28;86948;-90
2021/07/06 00:49:48;;;;;;;;;;;23.40;77.10;23.50;98621.00;;;;339049;28;87676;-90
2021/07/06 00:50:00;;;;;;;;;;;23.40;77.00;23.50;98625.00;;;;343047;28;85390;-90
2021/07/06 00:50:18;;;;;;;;;;;23.50;77.10;23.50;98632.00;;;;340682;28;86671;-89
2021/07/06 00:50:30;;;;;;;;;;;23.40;77.20;23.50;98627.00;;;;340235;28;87046;-89
2021/07/06 00:50:42;;;;;;;;;;;23.40;77.50;23.50;98628.00;;;;339796;28;87330;-88
2021/07/06 00:50:53;;;;;;;;;;;23.40;77.20;23.50;98625.00;;;;341004;28;86742;-89
2021/07/06 00:51:05;;;;;;;;;;;23.40;76.90;23.50;98624.00;;;;339372;28;90255;-90
2021/07/06 00:51:17;;;;;;;;;;;23.40;77.00;23.50;98622.00;;;;338188;28;87134;-89
2021/07/06 00:51:29;;;;;;;;;;;23.40;77.20;23.50;98627.00;;;;342090;28;87219;-89
2021/07/06 00:51:41;;;;;;;;;;;23.40;77.20;23.50;98623.00;;;;340254;28;86005;-90
2021/07/06 00:51:53;;;;;;;;;;;23.40;77.10;23.50;98621.00;;;;340318;28;88233;-89
2021/07/06 00:52:05;;;;;;;;;;;23.40;77.20;23.50;98618.00;;;;340212;28;87399;-91
2021/07/06 00:52:16;;;;;;;;;;;23.40;77.00;23.50;98614.00;;;;340881;28;86590;-90
2021/07/06 00:52:28;;;;;;;;;;;23.40;77.20;23.60;98623.00;;;;339110;28;86825;-88
2021/07/06 00:52:40;;;;;;;;;;;23.40;77.20;23.50;98625.00;;;;342097;28;89497;-89
2021/07/06 00:52:52;;;;;;;;;;;23.40;77.50;23.50;98624.00;;;;340474;28;87554;-90
2021/07/06 00:53:03;;;;;;;;;;;23.40;77.50;23.50;98620.00;;;;340726;28;88027;-89
2021/07/06 00:53:15;;;;;;;;;;;23.40;77.30;23.50;98623.00;;;;340365;28;86652;-89
2021/07/06 00:53:27;;;;;;;;;;;23.40;77.30;23.50;98622.00;;;;340651;28;89503;-89
2021/07/06 00:53:39;;;;;;;;;;;23.40;77.20;23.50;98625.00;;;;340499;28;86232;-89
2021/07/06 00:53:51;;;;;;;;;;;23.40;78.00;23.40;98624.00;;;;339532;28;89756;-87
2021/07/06 00:54:04;;;;;;;;;;;23.40;77.50;23.40;98630.00;;;;341693;28;87609;-90
2021/07/06 00:54:15;;;;;;;;;;;23.40;77.30;23.50;98612.00;;;;342062;28;86174;-91
2021/07/06 00:54:27;;;;;;;;;;;23.40;77.40;23.50;98622.00;;;;340456;28;86688;-88
2021/07/06 00:54:39;;;;;;;;;;;23.40;77.40;23.50;98616.00;;;;340755;28;87580;-88
2021/07/06 00:54:51;;;;;;;;;;;23.40;77.40;23.50;98624.00;;;;341245;28;86919;-89
2021/07/06 00:55:04;;;;;;;;;;;23.40;77.40;23.50;98625.00;;;;340958;28;86854;-88
2021/07/06 00:55:16;;;;;;;;;;;23.40;77.40;23.40;98622.00;;;;343177;28;86106;-91
2021/07/06 00:55:29;;;;;;;;;;;23.40;77.50;23.50;98623.00;;;;341971;28;91038;-88
2021/07/06 00:55:42;;;;;;;;;;;23.40;77.60;23.50;98625.00;;;;342080;28;85906;-90
2021/07/06 00:55:55;;;;;;;;;;;23.40;77.70;23.50;98626.00;;;;340694;28;89406;-90
2021/07/06 00:56:07;;;;;;;;;;;23.40;77.70;23.40;98627.00;;;;339396;28;86234;-91
2021/07/06 00:56:19;;;;;;;;;;;23.40;77.50;23.40;98627.00;;;;342121;28;87867;-90
2021/07/06 00:56:31;;;;;;;;;;;23.40;77.60;23.40;98623.00;;;;341841;28;86127;-88
2021/07/06 00:56:44;;;;;;;;;;;23.40;77.50;23.40;98624.00;;;;348921;27;87324;-88
2021/07/06 00:56:56;;;;;;;;;;;23.40;77.50;23.40;98626.00;;;;348754;28;86001;-89
2021/07/06 00:57:08;;;;;;;;;;;23.40;77.50;23.40;98627.00;;;;342122;28;89529;-89
2021/07/06 00:57:28;;;;;;;;;;;23.40;77.50;23.40;98627.00;;;;339222;28;86460;-90
2021/07/06 00:57:40;;;;;;;;;;;23.40;77.30;23.40;98628.00;;;;339469;28;90243;-90
2021/07/06 00:57:53;;;;;;;;;;;23.40;77.30;23.40;98623.00;;;;340319;28;87493;-89
2021/07/06 00:58:04;;;;;;;;;;;23.40;77.20;23.40;98627.00;;;;339273;28;89125;-89
2021/07/06 00:58:17;;;;;;;;;;;23.40;77.40;23.40;98626.00;;;;341479;28;86617;-90
2021/07/06 00:58:28;;;;;;;;;;;23.40;77.50;23.40;98621.00;;;;342354;28;88920;-91
2021/07/06 00:58:40;;;;;;;;;;;23.40;77.60;23.50;98622.00;;;;338975;28;86166;-91
2021/07/06 00:59:07;;;;;;;;;;;23.40;77.50;23.40;98626.00;;;;339135;28;90494;-89
2021/07/06 00:59:20;;;;;;;;;;;23.40;77.70;23.30;98625.00;;;;337693;28;86911;-90
2021/07/06 00:59:31;;;;;;;;;;;23.40;77.60;23.40;98620.00;;;;339097;28;87178;-91
2021/07/06 00:59:43;;;;;;;;;;;23.40;77.60;23.40;98619.00;;;;339163;28;87917;-88
2021/07/06 00:59:57;;;;;;;;;;;23.40;77.70;23.40;98619.00;;;;339868;28;88470;-89
2021/07/06 01:00:15;;;;;;;;;;;23.40;77.60;23.40;98625.00;;;;339043;28;86142;-90
2021/07/06 01:00:26;;;;;;;;;;;23.40;77.50;23.40;98621.00;;;;339199;28;88386;-91
2021/07/06 01:00:38;;;;;;;;;;;23.40;77.60;23.40;98620.00;;;;340146;28;88747;-90
2021/07/06 01:00:50;;;;;;;;;;;23.40;77.70;23.40;98619.00;;;;340422;28;87872;-91
2021/07/06 01:01:02;;;;;;;;;;;23.40;77.90;23.50;98611.00;;;;339004;28;86817;-90